createdAt,value
2022-08-10T00:00:58.540Z,1.90
2022-08-10T00:03:26.444Z,1.80
2022-08-10T00:05:56.510Z,2.10
2022-08-10T00:08:25.063Z,2.20
2022-08-10T00:10:53.395Z,1.80
2022-08-10T00:13:21.673Z,1.83
2022-08-10T00:15:53.409Z,2.27
2022-08-10T00:18:34.341Z,2.10
2022-08-10T00:21:03.375Z,2.27
2022-08-10T00:23:31.223Z,2.10
2022-08-10T00:25:59.156Z,2.30
2022-08-10T00:28:27.069Z,2.00
2022-08-10T00:30:55.267Z,1.77
2022-08-10T00:33:24.652Z,1.90
2022-08-10T00:35:52.688Z,1.80
2022-08-10T00:38:20.533Z,1.80
2022-08-10T00:40:48.459Z,1.80
2022-08-10T00:43:23.747Z,1.87
2022-08-10T00:45:59.465Z,2.00
2022-08-10T00:48:30.417Z,2.10
2022-08-10T00:50:59.882Z,2.10
2022-08-10T00:53:28.767Z,1.93
2022-08-10T00:57:12.439Z,1.90
2022-08-10T00:58:45.917Z,2.10
2022-08-10T01:02:09.867Z,2.40
2022-08-10T01:04:40.138Z,2.30
2022-08-10T01:07:03.429Z,1.97
2022-08-10T01:09:40.936Z,2.20
2022-08-10T01:12:40.798Z,2.00
2022-08-10T01:15:09.344Z,2.03
2022-08-10T01:17:50.127Z,2.10
2022-08-10T01:20:30.525Z,2.17
2022-08-10T01:23:27.072Z,2.00
2022-08-10T01:26:30.836Z,2.33
2022-08-10T01:29:14.421Z,2.27
2022-08-10T01:31:46.957Z,2.13
2022-08-10T01:34:21.543Z,2.20
2022-08-10T01:36:53.427Z,2.20
2022-08-10T01:39:24.735Z,2.07
2022-08-10T01:41:56.656Z,2.33
2022-08-10T01:44:30.149Z,2.50
2022-08-10T01:47:22.095Z,2.40
2022-08-10T01:49:54.806Z,2.23
2022-08-10T01:52:24.743Z,2.33
2022-08-10T01:54:56.016Z,2.50
2022-08-10T01:57:26.488Z,2.40
2022-08-10T01:59:58.664Z,2.70
2022-08-10T02:02:34.757Z,2.20
2022-08-10T02:05:06.325Z,2.00
2022-08-10T02:07:37.353Z,2.20
2022-08-10T02:10:11.671Z,2.50
2022-08-10T02:12:41.909Z,2.00
2022-08-10T02:15:14.194Z,2.20
2022-08-10T02:17:57.699Z,2.23
2022-08-10T02:20:34.528Z,2.60
2022-08-10T02:23:08.588Z,2.30
2022-08-10T02:25:41.952Z,2.30
2022-08-10T02:28:29.488Z,2.23
2022-08-10T02:31:06.213Z,2.20
2022-08-10T02:33:38.359Z,2.33
2022-08-10T02:36:09.736Z,2.40
2022-08-10T02:38:59.863Z,2.37
2022-08-10T02:45:02.450Z,2.43
2022-08-10T02:45:24.324Z,2.43
2022-08-10T02:47:22.619Z,2.20
2022-08-10T02:49:58.491Z,2.40
2022-08-10T02:52:32.821Z,2.60
2022-08-10T02:55:17.806Z,2.40
2022-08-10T02:58:13.842Z,2.43
2022-08-10T03:00:45.154Z,2.53
2022-08-10T03:03:18.728Z,2.50
2022-08-10T03:05:50.224Z,2.50
2022-08-10T03:08:22.369Z,2.40
2022-08-10T03:10:51.943Z,3.00
2022-08-10T03:13:21.709Z,2.83
2022-08-10T03:15:51.265Z,2.53
2022-08-10T03:18:20.996Z,2.80
2022-08-10T03:20:50.783Z,2.80
2022-08-10T03:23:21.382Z,2.80
2022-08-10T03:25:53.076Z,2.47
2022-08-10T03:28:23.614Z,2.70
2022-08-10T03:30:52.073Z,2.63
2022-08-10T03:33:21.607Z,2.60
2022-08-10T03:36:41.446Z,2.53
2022-08-10T03:38:40.840Z,2.83
2022-08-10T03:41:15.834Z,2.70
2022-08-10T03:43:47.919Z,2.50
2022-08-10T03:46:19.231Z,2.80
2022-08-10T03:48:50.034Z,2.87
2022-08-10T03:51:21.027Z,2.60
2022-08-10T03:54:05.065Z,3.10
2022-08-10T03:56:36.644Z,3.40
2022-08-10T03:59:06.435Z,2.50
2022-08-10T04:02:52.197Z,2.57
2022-08-10T04:04:25.005Z,2.90
2022-08-10T04:06:56.900Z,2.50
2022-08-10T04:09:56.083Z,3.00
2022-08-10T04:12:15.538Z,2.40
2022-08-10T04:14:51.327Z,2.60
2022-08-10T04:17:59.507Z,3.00
2022-08-10T04:20:17.634Z,2.50
2022-08-10T04:22:51.168Z,2.30
2022-08-10T04:25:20.802Z,2.70
2022-08-10T04:27:49.895Z,2.60
2022-08-10T04:30:18.441Z,2.80
2022-08-10T04:32:51.286Z,2.50
2022-08-10T04:35:23.903Z,2.67
2022-08-10T04:37:55.007Z,2.37
2022-08-10T04:40:28.518Z,2.80
2022-08-10T04:43:01.285Z,2.57
2022-08-10T04:45:49.795Z,2.60
2022-08-10T04:48:43.530Z,2.60
2022-08-10T04:51:17.072Z,2.30
2022-08-10T04:54:05.634Z,2.77
2022-08-10T04:56:36.955Z,2.20
2022-08-10T04:59:06.172Z,2.30
2022-08-10T05:02:22.338Z,2.07
2022-08-10T05:04:37.371Z,2.13
2022-08-10T05:07:12.180Z,2.40
2022-08-10T05:10:01.082Z,2.40
2022-08-10T05:12:35.762Z,2.20
2022-08-10T05:15:05.985Z,2.03
2022-08-10T05:17:34.991Z,2.17
2022-08-10T05:20:06.764Z,2.37
2022-08-10T05:22:37.132Z,2.20
2022-08-10T05:25:08.773Z,2.30
2022-08-10T05:27:37.015Z,2.70
2022-08-10T05:30:07.050Z,2.00
2022-08-10T05:32:57.165Z,2.10
2022-08-10T05:35:24.386Z,2.00
2022-08-10T05:38:08.898Z,2.30
2022-08-10T05:40:46.621Z,2.17
2022-08-10T05:43:19.161Z,2.10
2022-08-10T05:46:18.285Z,2.10
2022-08-10T05:48:54.686Z,2.00
2022-08-10T05:51:26.828Z,2.60
2022-08-10T05:54:02.249Z,2.23
2022-08-10T05:56:56.746Z,2.10
2022-08-10T06:00:10.712Z,2.70
2022-08-10T06:02:33.434Z,2.20
2022-08-10T06:05:07.594Z,2.00
2022-08-10T06:07:38.801Z,2.30
2022-08-10T06:10:10.444Z,2.30
2022-08-10T06:12:54.305Z,2.30
2022-08-10T06:15:50.719Z,2.27
2022-08-10T06:18:14.109Z,2.00
2022-08-10T06:20:42.677Z,2.30
2022-08-10T06:23:12.443Z,2.27
2022-08-10T06:26:11.294Z,1.90
2022-08-10T06:28:33.576Z,2.50
2022-08-10T06:31:02.634Z,2.20
2022-08-10T06:33:33.103Z,2.40
2022-08-10T06:36:02.533Z,1.87
2022-08-10T06:38:33.760Z,2.03
2022-08-10T06:41:06.247Z,1.90
2022-08-10T06:43:37.512Z,2.27
2022-08-10T06:46:12.282Z,2.27
2022-08-10T06:48:47.557Z,1.90
2022-08-10T06:51:21.498Z,2.10
2022-08-10T06:53:55.172Z,1.90
2022-08-10T06:56:38.134Z,2.07
2022-08-10T06:59:21.710Z,1.87
2022-08-10T07:01:54.125Z,1.90
2022-08-10T07:04:32.938Z,2.00
2022-08-10T07:07:04.948Z,1.80
2022-08-10T07:09:36.000Z,2.00
2022-08-10T07:12:08.637Z,2.23
2022-08-10T07:14:42.281Z,2.03
2022-08-10T07:17:16.168Z,2.20
2022-08-10T07:19:49.489Z,2.07
2022-08-10T07:23:08.628Z,2.10
2022-08-10T07:25:12.012Z,2.00
2022-08-10T07:27:59.636Z,1.87
2022-08-10T07:30:33.170Z,2.20
2022-08-10T07:33:02.800Z,2.07
2022-08-10T07:35:42.159Z,2.20
2022-08-10T07:38:17.040Z,2.30
2022-08-10T07:40:45.484Z,2.22
2022-08-10T07:43:14.667Z,2.13
2022-08-10T07:45:44.192Z,1.80
2022-08-10T07:48:16.983Z,2.30
2022-08-10T07:50:46.368Z,2.10
2022-08-10T07:53:20.167Z,2.30
2022-08-10T07:56:05.642Z,2.10
2022-08-10T07:58:40.291Z,1.55
2022-08-10T08:01:18.935Z,1.95
2022-08-10T08:04:06.024Z,1.93
2022-08-10T08:06:38.255Z,2.10
2022-08-10T08:09:06.803Z,2.10
2022-08-10T08:11:36.617Z,2.05
2022-08-10T08:14:06.890Z,1.92
2022-08-10T08:16:37.718Z,1.83
2022-08-10T08:24:04.729Z,2.05
2022-08-10T08:24:44.831Z,1.98
2022-08-10T08:27:16.662Z,2.10
2022-08-10T08:29:48.451Z,1.90
2022-08-10T08:32:22.177Z,2.25
2022-08-10T08:34:53.507Z,1.92
2022-08-10T08:38:32.297Z,2.58
2022-08-10T08:40:15.454Z,1.88
2022-08-10T08:43:12.902Z,2.00
2022-08-10T08:46:01.861Z,1.60
2022-08-10T08:48:52.733Z,1.80
2022-08-10T08:52:09.968Z,1.98
2022-08-10T08:54:35.035Z,2.00
2022-08-10T08:57:07.164Z,1.70
2022-08-10T08:59:47.983Z,2.08
2022-08-10T09:02:32.987Z,1.70
2022-08-10T09:05:09.879Z,1.80
2022-08-10T09:08:07.053Z,1.98
2022-08-10T09:10:46.365Z,1.88
2022-08-10T09:13:26.782Z,1.83
2022-08-10T09:16:04.014Z,1.80
2022-08-10T09:18:49.053Z,1.80
2022-08-10T09:21:24.773Z,2.03
2022-08-10T09:24:02.074Z,1.58
2022-08-10T09:26:43.415Z,1.83
2022-08-10T09:29:26.920Z,1.55
2022-08-10T09:36:13.911Z,1.67
2022-08-10T09:36:26.579Z,1.45
2022-08-10T09:38:12.526Z,1.48
2022-08-10T09:41:00.074Z,1.83
2022-08-10T09:43:41.841Z,1.67
2022-08-10T09:46:21.406Z,1.63
2022-08-10T09:49:04.445Z,1.60
2022-08-10T09:51:47.946Z,1.60
2022-08-10T09:54:36.992Z,1.67
2022-08-10T09:57:44.664Z,1.42
2022-08-10T10:00:10.845Z,1.85
2022-08-10T10:02:52.465Z,1.60
2022-08-10T10:05:30.914Z,1.83
2022-08-10T10:08:07.274Z,1.60
2022-08-10T10:10:47.536Z,1.30
2022-08-10T10:14:02.195Z,1.58
2022-08-10T10:16:24.556Z,1.27
2022-08-10T10:19:05.491Z,1.40
2022-08-10T10:21:54.967Z,1.42
2022-08-10T10:24:30.797Z,1.30
2022-08-10T10:27:04.305Z,1.33
2022-08-10T10:29:56.224Z,1.42
2022-08-10T10:32:36.776Z,1.48
2022-08-10T10:35:14.393Z,1.23
2022-08-10T10:38:01.318Z,1.60
2022-08-10T10:40:38.683Z,1.58
2022-08-10T10:43:19.415Z,1.40
2022-08-10T10:45:56.035Z,1.73
2022-08-10T10:48:31.468Z,1.52
2022-08-10T10:51:10.645Z,1.67
2022-08-10T10:53:46.949Z,1.80
2022-08-10T10:56:21.365Z,1.48
2022-08-10T10:59:33.409Z,1.63
2022-08-10T11:02:05.852Z,1.30
2022-08-10T11:04:43.625Z,1.50
2022-08-10T11:07:21.901Z,1.65
2022-08-10T11:10:05.994Z,1.42
2022-08-10T11:12:57.050Z,1.48
2022-08-10T11:15:43.167Z,1.45
2022-08-10T11:18:23.334Z,1.88
2022-08-10T11:20:58.750Z,1.60
2022-08-10T11:23:37.552Z,1.77
2022-08-10T11:26:11.598Z,1.23
2022-08-10T11:28:45.045Z,1.63
2022-08-10T11:31:20.839Z,1.63
2022-08-10T11:34:47.002Z,4.78
2022-08-10T11:36:50.800Z,2.00
2022-08-10T11:39:35.623Z,1.40
2022-08-10T11:42:17.362Z,1.55
2022-08-10T11:45:00.973Z,1.70
2022-08-10T11:47:38.625Z,1.63
2022-08-10T11:50:13.948Z,1.33
2022-08-10T11:52:50.208Z,1.50
2022-08-10T11:55:21.172Z,1.92
2022-08-10T11:57:53.139Z,1.70
2022-08-10T12:00:22.825Z,1.70
2022-08-10T12:02:57.524Z,1.50
2022-08-10T12:05:51.521Z,1.40
2022-08-10T12:10:02.538Z,1.70
2022-08-10T12:11:08.617Z,1.52
2022-08-10T12:13:58.413Z,1.60
2022-08-10T12:16:28.536Z,1.40
2022-08-10T12:19:02.973Z,2.05
2022-08-10T12:21:36.377Z,1.60
2022-08-10T12:24:12.645Z,1.60
2022-08-10T12:26:48.069Z,1.60
2022-08-10T12:29:25.225Z,1.83
2022-08-10T12:31:58.734Z,1.52
2022-08-10T12:34:31.832Z,1.65
2022-08-10T12:37:08.382Z,1.60
2022-08-10T12:39:42.920Z,2.00
2022-08-10T12:42:34.845Z,1.58
2022-08-10T12:45:15.804Z,1.60
2022-08-10T12:47:52.186Z,2.08
2022-08-10T12:50:33.683Z,1.80
2022-08-10T12:53:06.751Z,1.70
2022-08-10T12:55:38.405Z,1.90
2022-08-10T12:58:58.211Z,2.00
2022-08-10T13:01:16.501Z,1.63
2022-08-10T13:04:22.440Z,1.73
2022-08-10T13:06:42.535Z,1.77
2022-08-10T13:09:12.840Z,2.05
2022-08-10T13:12:37.151Z,2.03
2022-08-10T13:14:36.716Z,1.95
2022-08-10T13:17:08.132Z,2.03
2022-08-10T13:19:55.048Z,2.05
2022-08-10T13:22:28.411Z,2.28
2022-08-10T13:25:02.584Z,1.80
2022-08-10T13:28:01.189Z,1.92
2022-08-10T13:30:35.593Z,1.90
2022-08-10T13:33:07.745Z,1.90
2022-08-10T13:35:37.042Z,1.70
2022-08-10T13:38:08.228Z,1.85
2022-08-10T13:40:37.083Z,2.05
2022-08-10T13:43:08.495Z,2.33
2022-08-10T13:45:46.270Z,1.90
2022-08-10T13:48:20.459Z,1.85
2022-08-10T13:50:50.352Z,2.10
2022-08-10T13:53:20.510Z,1.83
2022-08-10T13:55:55.426Z,1.92
2022-08-10T13:58:31.199Z,1.58
2022-08-10T14:01:01.108Z,1.80
2022-08-10T14:03:29.971Z,1.73
2022-08-10T14:05:59.562Z,1.75
2022-08-10T14:08:33.057Z,1.50
2022-08-10T14:11:11.173Z,1.80
2022-08-10T14:13:43.705Z,1.52
2022-08-10T14:16:12.802Z,1.80
2022-08-10T14:18:42.268Z,1.73
2022-08-10T14:21:10.659Z,1.90
2022-08-10T14:23:51.884Z,1.80
2022-08-10T14:26:24.228Z,1.52
2022-08-10T14:28:55.023Z,2.10
2022-08-10T14:31:26.990Z,1.90
2022-08-10T14:33:58.218Z,2.10
2022-08-10T14:36:33.208Z,2.00
2022-08-10T14:39:04.846Z,1.63
2022-08-10T14:42:01.866Z,2.30
2022-08-10T14:44:25.755Z,2.25
2022-08-10T14:46:58.305Z,1.92
2022-08-10T14:49:27.286Z,1.88
2022-08-10T14:52:00.905Z,1.90
2022-08-10T14:54:33.219Z,1.80
2022-08-10T14:57:11.026Z,1.80
2022-08-10T15:00:22.930Z,1.95
2022-08-10T15:02:38.550Z,1.95
2022-08-10T15:05:10.866Z,1.70
2022-08-10T15:07:39.182Z,2.13
2022-08-10T15:10:10.176Z,2.10
2022-08-10T15:12:41.398Z,1.85
2022-08-10T15:15:16.332Z,1.73
2022-08-10T15:17:50.818Z,2.00
2022-08-10T15:20:23.218Z,1.70
2022-08-10T15:22:55.748Z,1.98
2022-08-10T15:25:28.233Z,1.60
2022-08-10T15:28:05.218Z,1.52
2022-08-10T15:30:40.869Z,1.70
2022-08-10T15:34:02.232Z,1.83
2022-08-10T15:37:01.957Z,1.83
2022-08-10T15:40:22.128Z,1.58
2022-08-10T15:42:35.009Z,1.50
2022-08-10T15:45:04.322Z,1.80
2022-08-10T15:47:46.073Z,1.65
2022-08-10T15:50:17.368Z,1.77
2022-08-10T15:53:00.571Z,1.90
2022-08-10T15:55:42.336Z,1.95
2022-08-10T15:58:19.169Z,1.60
2022-08-10T16:00:50.617Z,1.80
2022-08-10T16:03:27.101Z,1.52
2022-08-10T16:06:02.401Z,2.05
2022-08-10T16:08:56.002Z,1.98
2022-08-10T16:11:37.708Z,1.73
2022-08-10T16:14:15.497Z,2.10
2022-08-10T16:16:48.882Z,1.55
2022-08-10T16:19:23.839Z,1.85
2022-08-10T16:21:56.850Z,2.15
2022-08-10T16:24:27.508Z,1.88
2022-08-10T16:26:56.133Z,1.85
2022-08-10T16:29:27.205Z,1.42
2022-08-10T16:31:57.122Z,1.70
2022-08-10T16:34:27.383Z,1.88
2022-08-10T16:36:57.817Z,1.90
2022-08-10T16:40:00.307Z,1.70
2022-08-10T16:42:21.312Z,1.70
2022-08-10T16:44:57.474Z,1.70
2022-08-10T16:47:28.625Z,1.70
2022-08-10T16:49:59.340Z,1.58
2022-08-10T16:52:29.889Z,2.10
2022-08-10T16:55:16.965Z,1.73
2022-08-10T16:57:55.279Z,1.50
2022-08-10T17:00:26.891Z,1.48
2022-08-10T17:03:02.604Z,1.70
2022-08-10T17:06:01.813Z,1.90
2022-08-10T17:08:47.980Z,1.50
2022-08-10T17:11:18.318Z,1.88
2022-08-10T17:13:46.966Z,1.77
2022-08-10T17:16:18.429Z,1.67
2022-08-10T17:18:48.295Z,1.83
2022-08-10T17:21:21.541Z,1.45
2022-08-10T17:23:52.454Z,1.80
2022-08-10T17:26:36.196Z,1.80
2022-08-10T17:29:53.771Z,1.80
2022-08-10T17:32:06.456Z,1.70
2022-08-10T17:34:39.241Z,1.77
2022-08-10T17:37:20.501Z,1.90
2022-08-10T17:39:54.142Z,1.67
2022-08-10T17:42:24.196Z,1.90
2022-08-10T17:44:55.066Z,1.75
2022-08-10T17:47:27.450Z,1.83
2022-08-10T17:49:57.580Z,1.60
2022-08-10T17:52:28.609Z,1.88
2022-08-10T17:55:00.818Z,1.58
2022-08-10T17:57:29.721Z,1.58
2022-08-10T18:00:02.633Z,2.17
2022-08-10T18:02:37.119Z,2.08
2022-08-10T18:05:09.230Z,1.70
2022-08-10T18:07:39.832Z,1.95
2022-08-10T18:10:10.424Z,1.83
2022-08-10T18:12:45.318Z,1.50
2022-08-10T18:15:16.656Z,1.90
2022-08-10T18:17:50.547Z,1.80
2022-08-10T18:20:27.976Z,1.50
2022-08-10T18:22:58.229Z,1.88
2022-08-10T18:25:31.993Z,1.60
2022-08-10T18:28:05.259Z,1.63
2022-08-10T18:30:37.010Z,1.90
2022-08-10T18:33:11.842Z,1.70
2022-08-10T18:35:40.459Z,1.63
2022-08-10T18:38:09.749Z,1.58
2022-08-10T18:40:40.878Z,1.80
2022-08-10T18:44:04.384Z,1.48
2022-08-10T18:45:59.648Z,1.90
2022-08-10T18:48:43.054Z,1.50
2022-08-10T18:51:13.201Z,1.83
2022-08-10T18:53:48.192Z,1.80
2022-08-10T18:56:37.096Z,1.70
2022-08-10T18:59:20.465Z,1.73
2022-08-10T19:02:06.268Z,2.08
2022-08-10T19:04:52.373Z,1.58
2022-08-10T19:07:46.461Z,1.60
2022-08-10T19:10:25.562Z,1.60
2022-08-10T19:13:00.173Z,1.67
2022-08-10T19:15:34.058Z,1.50
2022-08-10T19:18:17.994Z,1.70
2022-08-10T19:20:52.411Z,1.90
2022-08-10T19:23:38.661Z,2.00
2022-08-10T19:26:44.055Z,1.70
2022-08-10T19:30:01.068Z,1.80
2022-08-10T19:32:18.377Z,1.70
2022-08-10T19:34:57.770Z,1.70
2022-08-10T19:37:34.877Z,1.60
2022-08-10T19:40:15.878Z,1.70
2022-08-10T19:42:50.449Z,1.80
2022-08-10T19:46:01.731Z,1.43
2022-08-10T19:48:23.385Z,1.80
2022-08-10T19:50:56.892Z,1.67
2022-08-10T19:53:32.444Z,1.60
2022-08-10T19:56:31.037Z,1.70
2022-08-10T19:59:05.444Z,1.80
2022-08-10T20:01:55.405Z,2.03
2022-08-10T20:04:28.935Z,1.63
2022-08-10T20:07:04.111Z,1.90
2022-08-10T20:09:42.336Z,1.60
2022-08-10T20:12:19.772Z,1.70
2022-08-10T20:14:52.789Z,2.20
2022-08-10T20:17:30.288Z,1.90
2022-08-10T20:20:24.013Z,1.57
2022-08-10T20:23:05.794Z,1.70
2022-08-10T20:25:35.318Z,1.73
2022-08-10T20:28:12.138Z,1.80
2022-08-10T20:30:46.754Z,1.70
2022-08-10T20:33:23.570Z,2.00
2022-08-10T20:35:57.243Z,1.53
2022-08-10T20:38:33.460Z,1.57
2022-08-10T20:41:15.498Z,1.60
2022-08-10T20:43:53.815Z,1.40
2022-08-10T20:46:28.357Z,1.60
2022-08-10T20:49:00.829Z,2.00
2022-08-10T20:51:59.578Z,2.03
2022-08-10T20:54:32.442Z,1.40
2022-08-10T20:57:55.648Z,1.67
2022-08-10T21:00:11.054Z,1.67
2022-08-10T21:02:55.517Z,1.63
2022-08-10T21:05:31.269Z,1.70
2022-08-10T21:08:09.316Z,1.90
2022-08-10T21:10:57.577Z,1.90
2022-08-10T21:13:51.087Z,1.97
2022-08-10T21:16:32.721Z,1.60
2022-08-10T21:19:23.871Z,2.10
2022-08-10T21:22:08.542Z,1.50
2022-08-10T21:24:43.426Z,1.40
2022-08-10T21:27:27.251Z,1.83
2022-08-10T21:30:08.987Z,1.30
2022-08-10T21:32:48.829Z,1.80
2022-08-10T21:35:36.681Z,1.80
2022-08-10T21:38:12.827Z,1.73
2022-08-10T21:41:18.919Z,1.60
2022-08-10T21:44:17.057Z,1.63
2022-08-10T21:47:41.691Z,1.80
2022-08-10T21:53:44.633Z,1.70
2022-08-10T21:56:39.758Z,1.80
2022-08-10T21:59:34.786Z,1.70
2022-08-10T22:02:28.233Z,1.67
2022-08-10T22:05:18.830Z,1.53
2022-08-10T22:08:12.182Z,1.70
2022-08-10T22:11:01.886Z,1.83
2022-08-10T22:13:49.940Z,1.63
2022-08-10T22:16:45.307Z,2.17
2022-08-10T22:19:34.014Z,1.80
2022-08-10T22:22:28.508Z,1.80
2022-08-10T22:25:24.844Z,2.00
2022-08-10T22:28:15.721Z,1.90
2022-08-10T22:31:25.376Z,1.57
2022-08-10T22:34:24.602Z,2.10
2022-08-10T22:37:23.851Z,1.80
2022-08-10T22:40:20.548Z,1.90
2022-08-10T22:43:10.943Z,1.80
2022-08-10T22:46:03.225Z,1.70
2022-08-10T22:48:50.739Z,1.60
2022-08-10T22:51:24.764Z,2.00
2022-08-10T22:54:31.057Z,1.70
2022-08-10T22:57:19.229Z,1.50
2022-08-10T22:59:49.253Z,1.80
2022-08-10T23:02:29.241Z,1.77
2022-08-10T23:05:04.717Z,1.70
2022-08-10T23:07:36.761Z,1.97
2022-08-10T23:10:09.205Z,2.00
2022-08-10T23:12:41.659Z,1.87
2022-08-10T23:15:37.166Z,1.80
2022-08-10T23:18:26.352Z,1.87
2022-08-10T23:20:57.017Z,1.80
2022-08-10T23:23:26.779Z,1.93
2022-08-10T23:25:58.538Z,2.00
2022-08-10T23:28:38.685Z,1.90
2022-08-10T23:31:17.532Z,1.90
2022-08-10T23:34:07.329Z,1.87
2022-08-10T23:36:38.413Z,1.70
2022-08-10T23:39:25.845Z,2.03
2022-08-10T23:42:06.412Z,1.97
2022-08-10T23:44:38.104Z,1.80
2022-08-10T23:47:07.496Z,1.93
2022-08-10T23:49:36.987Z,2.07
2022-08-10T23:52:11.856Z,2.20
2022-08-10T23:54:46.249Z,1.90
2022-08-10T23:57:19.409Z,2.10
2022-08-10T23:59:53.775Z,1.53
